KLBE/LBE METAR and TAF weather

Enter ICAO airport designator
Station Type Date Time Source
KLBE METAR 2022/06/29 00:47 UTC NOAA

KLBE 290047Z 00000KT 10SM CLR 22/12 A3021


Station Type Date Time Source
KLBE Decoded METAR 2022/06/29 00:47 UTC NOAA

Latrobe / Westmorland, PA, United States (KLBE) 40-17N 079-24W
Jun 28, 2022 - 08:47 PM EDT / 2022.06.29 0047 UTC
Wind: Calm:0
Visibility: 10 mile(s):0
Sky conditions: clear
Temperature: 71 F (22 C)
Dew Point: 53 F (12 C)
Relative Humidity: 53%
Pressure (altimeter): 30.21 in. Hg (1023 hPa)
ob: KLBE 290047Z 00000KT 10SM CLR 22/12 A3021
cycle: 1

Station Type Date Time Source
KLBE TAF 2022/06/28 18:22 UTC NOAA

TAF KLBE 281720Z 2818/2918 31005KT P6SM SKC
FM290100 00000KT P6SM SKC
FM291500 24006KT P6SM SKC

Example: see airport list